sensor_id;sensor_type;location;lat;lon;timestamp;temperature;humidity
71436;SHT31;59251;51.326;12.370;2023-06-10T00:01:59;18.83;70.78
71436;SHT31;59251;51.326;12.370;2023-06-10T00:04:27;18.76;70.90
71436;SHT31;59251;51.326;12.370;2023-06-10T00:06:55;18.76;70.75
71436;SHT31;59251;51.326;12.370;2023-06-10T00:09:22;18.75;71.01
71436;SHT31;59251;51.326;12.370;2023-06-10T00:11:49;18.67;70.97
71436;SHT31;59251;51.326;12.370;2023-06-10T00:14:15;18.63;71.08
71436;SHT31;59251;51.326;12.370;2023-06-10T00:16:42;18.58;71.12
71436;SHT31;59251;51.326;12.370;2023-06-10T00:19:10;18.54;71.39
71436;SHT31;59251;51.326;12.370;2023-06-10T00:21:39;18.40;71.76
71436;SHT31;59251;51.326;12.370;2023-06-10T00:24:08;18.33;71.81
71436;SHT31;59251;51.326;12.370;2023-06-10T00:26:37;18.29;71.91
71436;SHT31;59251;51.326;12.370;2023-06-10T00:29:04;18.25;72.02
71436;SHT31;59251;51.326;12.370;2023-06-10T00:31:31;18.22;72.00
71436;SHT31;59251;51.326;12.370;2023-06-10T00:33:58;18.19;71.94
71436;SHT31;59251;51.326;12.370;2023-06-10T00:36:25;18.12;72.25
71436;SHT31;59251;51.326;12.370;2023-06-10T00:38:52;18.12;72.19
71436;SHT31;59251;51.326;12.370;2023-06-10T00:41:20;18.02;72.30
71436;SHT31;59251;51.326;12.370;2023-06-10T00:43:47;17.95;72.40
71436;SHT31;59251;51.326;12.370;2023-06-10T00:46:13;17.90;72.53
71436;SHT31;59251;51.326;12.370;2023-06-10T00:48:42;17.85;72.52
71436;SHT31;59251;51.326;12.370;2023-06-10T00:51:10;17.81;72.66
71436;SHT31;59251;51.326;12.370;2023-06-10T00:53:39;17.82;72.30
71436;SHT31;59251;51.326;12.370;2023-06-10T00:56:07;17.77;72.40
71436;SHT31;59251;51.326;12.370;2023-06-10T00:58:36;17.81;72.54
71436;SHT31;59251;51.326;12.370;2023-06-10T01:01:03;17.77;72.13
71436;SHT31;59251;51.326;12.370;2023-06-10T01:03:30;17.74;72.43
71436;SHT31;59251;51.326;12.370;2023-06-10T01:06:02;17.69;72.55
71436;SHT31;59251;51.326;12.370;2023-06-10T01:08:35;17.62;72.82
71436;SHT31;59251;51.326;12.370;2023-06-10T01:11:08;17.52;73.11
71436;SHT31;59251;51.326;12.370;2023-06-10T01:13:38;17.50;73.17
71436;SHT31;59251;51.326;12.370;2023-06-10T01:16:06;17.41;73.55
71436;SHT31;59251;51.326;12.370;2023-06-10T01:18:33;17.31;73.91
71436;SHT31;59251;51.326;12.370;2023-06-10T01:21:00;17.31;73.71
71436;SHT31;59251;51.326;12.370;2023-06-10T01:23:29;17.28;74.00
71436;SHT31;59251;51.326;12.370;2023-06-10T01:26:02;17.23;74.20
71436;SHT31;59251;51.326;12.370;2023-06-10T01:28:33;17.23;74.52
71436;SHT31;59251;51.326;12.370;2023-06-10T01:31:09;17.17;74.64
71436;SHT31;59251;51.326;12.370;2023-06-10T01:33:43;17.14;74.80
71436;SHT31;59251;51.326;12.370;2023-06-10T01:36:12;17.09;74.98
71436;SHT31;59251;51.326;12.370;2023-06-10T01:38:43;17.09;75.07
71436;SHT31;59251;51.326;12.370;2023-06-10T01:41:10;17.02;75.39
71436;SHT31;59251;51.326;12.370;2023-06-10T01:43:38;17.02;75.52
71436;SHT31;59251;51.326;12.370;2023-06-10T01:46:06;17.02;75.47
71436;SHT31;59251;51.326;12.370;2023-06-10T01:48:33;17.04;75.38
71436;SHT31;59251;51.326;12.370;2023-06-10T01:51:00;17.02;75.58
71436;SHT31;59251;51.326;12.370;2023-06-10T01:53:26;16.96;75.69
71436;SHT31;59251;51.326;12.370;2023-06-10T01:55:54;16.94;75.85
71436;SHT31;59251;51.326;12.370;2023-06-10T01:58:22;16.87;75.92
71436;SHT31;59251;51.326;12.370;2023-06-10T02:00:49;16.79;76.20
71436;SHT31;59251;51.326;12.370;2023-06-10T02:03:15;16.72;76.50
71436;SHT31;59251;51.326;12.370;2023-06-10T02:05:42;16.69;76.34
71436;SHT31;59251;51.326;12.370;2023-06-10T02:08:09;16.69;76.26
71436;SHT31;59251;51.326;12.370;2023-06-10T02:10:36;16.75;76.25
71436;SHT31;59251;51.326;12.370;2023-06-10T02:13:04;16.68;76.22
71436;SHT31;59251;51.326;12.370;2023-06-10T02:15:30;16.62;76.37
71436;SHT31;59251;51.326;12.370;2023-06-10T02:17:57;16.55;76.76
71436;SHT31;59251;51.326;12.370;2023-06-10T02:20:24;16.55;76.85
71436;SHT31;59251;51.326;12.370;2023-06-10T02:22:51;16.54;77.11
71436;SHT31;59251;51.326;12.370;2023-06-10T02:25:18;16.48;77.42
71436;SHT31;59251;51.326;12.370;2023-06-10T02:27:44;16.49;77.78
71436;SHT31;59251;51.326;12.370;2023-06-10T02:30:13;16.51;77.86
71436;SHT31;59251;51.326;12.370;2023-06-10T02:32:40;16.44;78.20
71436;SHT31;59251;51.326;12.370;2023-06-10T02:35:08;16.41;78.49
71436;SHT31;59251;51.326;12.370;2023-06-10T02:37:38;16.31;78.82
71436;SHT31;59251;51.326;12.370;2023-06-10T02:40:06;16.25;79.13
71436;SHT31;59251;51.326;12.370;2023-06-10T02:42:35;16.17;79.57
71436;SHT31;59251;51.326;12.370;2023-06-10T02:45:03;16.16;79.77
71436;SHT31;59251;51.326;12.370;2023-06-10T02:47:38;16.08;80.28
71436;SHT31;59251;51.326;12.370;2023-06-10T02:50:06;16.16;80.56
71436;SHT31;59251;51.326;12.370;2023-06-10T02:52:38;16.16;80.67
71436;SHT31;59251;51.326;12.370;2023-06-10T02:55:06;16.21;80.88
71436;SHT31;59251;51.326;12.370;2023-06-10T02:57:33;16.17;80.90
71436;SHT31;59251;51.326;12.370;2023-06-10T03:00:02;16.16;81.00
71436;SHT31;59251;51.326;12.370;2023-06-10T03:02:34;16.14;81.13
71436;SHT31;59251;51.326;12.370;2023-06-10T03:05:06;16.07;81.54
71436;SHT31;59251;51.326;12.370;2023-06-10T03:07:36;16.01;81.79
71436;SHT31;59251;51.326;12.370;2023-06-10T03:10:04;15.96;82.08
71436;SHT31;59251;51.326;12.370;2023-06-10T03:12:32;15.98;82.18
71436;SHT31;59251;51.326;12.370;2023-06-10T03:14:58;15.96;82.36
71436;SHT31;59251;51.326;12.370;2023-06-10T03:17:27;15.91;82.53
71436;SHT31;59251;51.326;12.370;2023-06-10T03:19:54;15.83;82.79
71436;SHT31;59251;51.326;12.370;2023-06-10T03:22:23;15.83;83.05
71436;SHT31;59251;51.326;12.370;2023-06-10T03:24:58;15.79;83.29
71436;SHT31;59251;51.326;12.370;2023-06-10T03:27:26;15.76;83.57
71436;SHT31;59251;51.326;12.370;2023-06-10T03:29:56;15.69;83.97
71436;SHT31;59251;51.326;12.370;2023-06-10T03:32:23;15.67;84.30
71436;SHT31;59251;51.326;12.370;2023-06-10T03:34:51;15.62;84.60
71436;SHT31;59251;51.326;12.370;2023-06-10T03:37:26;15.63;84.89
71436;SHT31;59251;51.326;12.370;2023-06-10T03:39:52;15.52;85.51
71436;SHT31;59251;51.326;12.370;2023-06-10T03:42:19;15.50;85.81
71436;SHT31;59251;51.326;12.370;2023-06-10T03:44:47;15.48;86.17
71436;SHT31;59251;51.326;12.370;2023-06-10T03:47:14;15.53;86.51
71436;SHT31;59251;51.326;12.370;2023-06-10T03:49:42;15.59;86.09
71436;SHT31;59251;51.326;12.370;2023-06-10T03:52:10;15.49;86.87
71436;SHT31;59251;51.326;12.370;2023-06-10T03:54:38;15.53;86.74
71436;SHT31;59251;51.326;12.370;2023-06-10T03:57:05;15.56;86.70
71436;SHT31;59251;51.326;12.370;2023-06-10T03:59:32;15.59;86.59
71436;SHT31;59251;51.326;12.370;2023-06-10T04:01:58;15.65;86.53
71436;SHT31;59251;51.326;12.370;2023-06-10T04:04:26;15.67;86.48
71436;SHT31;59251;51.326;12.370;2023-06-10T04:06:52;15.66;86.69
71436;SHT31;59251;51.326;12.370;2023-06-10T04:09:20;15.76;86.31
71436;SHT31;59251;51.326;12.370;2023-06-10T04:11:48;15.83;86.21
71436;SHT31;59251;51.326;12.370;2023-06-10T04:14:14;15.91;86.08
71436;SHT31;59251;51.326;12.370;2023-06-10T04:16:42;15.89;85.97
71436;SHT31;59251;51.326;12.370;2023-06-10T04:19:10;15.97;85.98
71436;SHT31;59251;51.326;12.370;2023-06-10T04:21:37;16.03;85.69
71436;SHT31;59251;51.326;12.370;2023-06-10T04:24:04;16.08;85.66
71436;SHT31;59251;51.326;12.370;2023-06-10T04:26:32;16.14;85.58
71436;SHT31;59251;51.326;12.370;2023-06-10T04:29:00;16.20;85.27
71436;SHT31;59251;51.326;12.370;2023-06-10T04:31:28;16.27;84.91
71436;SHT31;59251;51.326;12.370;2023-06-10T04:33:55;16.38;84.64
71436;SHT31;59251;51.326;12.370;2023-06-10T04:36:21;16.44;84.61
71436;SHT31;59251;51.326;12.370;2023-06-10T04:38:50;16.62;84.62
71436;SHT31;59251;51.326;12.370;2023-06-10T04:41:17;16.96;83.44
71436;SHT31;59251;51.326;12.370;2023-06-10T04:43:45;17.03;83.03
71436;SHT31;59251;51.326;12.370;2023-06-10T04:46:13;16.87;83.39
71436;SHT31;59251;51.326;12.370;2023-06-10T04:48:40;16.77;83.74
71436;SHT31;59251;51.326;12.370;2023-06-10T04:51:08;16.59;84.18
71436;SHT31;59251;51.326;12.370;2023-06-10T04:53:34;16.69;84.10
71436;SHT31;59251;51.326;12.370;2023-06-10T04:56:01;16.62;84.17
71436;SHT31;59251;51.326;12.370;2023-06-10T04:58:28;16.71;83.98
71436;SHT31;59251;51.326;12.370;2023-06-10T05:00:55;16.77;83.84
71436;SHT31;59251;51.326;12.370;2023-06-10T05:03:23;16.77;83.92
71436;SHT31;59251;51.326;12.370;2023-06-10T05:05:49;16.69;84.29
71436;SHT31;59251;51.326;12.370;2023-06-10T05:08:16;16.73;84.23
71436;SHT31;59251;51.326;12.370;2023-06-10T05:10:43;16.68;84.46
71436;SHT31;59251;51.326;12.370;2023-06-10T05:13:09;16.77;84.13
71436;SHT31;59251;51.326;12.370;2023-06-10T05:15:36;16.77;84.19
71436;SHT31;59251;51.326;12.370;2023-06-10T05:18:03;16.80;84.19
71436;SHT31;59251;51.326;12.370;2023-06-10T05:20:31;16.87;84.02
71436;SHT31;59251;51.326;12.370;2023-06-10T05:22:58;17.07;83.54
71436;SHT31;59251;51.326;12.370;2023-06-10T05:25:26;17.35;82.74
71436;SHT31;59251;51.326;12.370;2023-06-10T05:27:52;17.38;82.63
71436;SHT31;59251;51.326;12.370;2023-06-10T05:30:19;17.17;83.07
71436;SHT31;59251;51.326;12.370;2023-06-10T05:32:46;16.96;84.05
71436;SHT31;59251;51.326;12.370;2023-06-10T05:35:13;16.94;84.28
71436;SHT31;59251;51.326;12.370;2023-06-10T05:37:41;17.09;83.94
71436;SHT31;59251;51.326;12.370;2023-06-10T05:40:08;16.97;84.22
71436;SHT31;59251;51.326;12.370;2023-06-10T05:42:35;17.04;84.32
71436;SHT31;59251;51.326;12.370;2023-06-10T05:45:03;17.23;83.85
71436;SHT31;59251;51.326;12.370;2023-06-10T05:47:29;17.37;83.52
71436;SHT31;59251;51.326;12.370;2023-06-10T05:49:56;17.28;83.32
71436;SHT31;59251;51.326;12.370;2023-06-10T05:52:23;17.41;83.09
71436;SHT31;59251;51.326;12.370;2023-06-10T05:54:51;17.45;83.21
71436;SHT31;59251;51.326;12.370;2023-06-10T05:57:19;17.37;83.26
71436;SHT31;59251;51.326;12.370;2023-06-10T05:59:46;17.48;83.14
71436;SHT31;59251;51.326;12.370;2023-06-10T06:02:13;17.52;82.94
71436;SHT31;59251;51.326;12.370;2023-06-10T06:04:39;17.65;82.70
71436;SHT31;59251;51.326;12.370;2023-06-10T06:07:06;17.45;83.16
71436;SHT31;59251;51.326;12.370;2023-06-10T06:09:33;17.79;82.70
71436;SHT31;59251;51.326;12.370;2023-06-10T06:12:01;17.83;82.42
71436;SHT31;59251;51.326;12.370;2023-06-10T06:14:31;17.90;82.18
71436;SHT31;59251;51.326;12.370;2023-06-10T06:16:58;17.93;82.13
71436;SHT31;59251;51.326;12.370;2023-06-10T06:19:24;18.05;81.86
71436;SHT31;59251;51.326;12.370;2023-06-10T06:21:51;17.93;82.28
71436;SHT31;59251;51.326;12.370;2023-06-10T06:24:18;18.09;81.94
71436;SHT31;59251;51.326;12.370;2023-06-10T06:26:44;17.96;82.28
71436;SHT31;59251;51.326;12.370;2023-06-10T06:29:13;18.02;82.37
71436;SHT31;59251;51.326;12.370;2023-06-10T06:31:39;17.99;82.40
71436;SHT31;59251;51.326;12.370;2023-06-10T06:34:06;17.92;82.52
71436;SHT31;59251;51.326;12.370;2023-06-10T06:36:32;18.05;82.42
71436;SHT31;59251;51.326;12.370;2023-06-10T06:38:59;18.17;81.87
71436;SHT31;59251;51.326;12.370;2023-06-10T06:41:27;18.23;82.16
71436;SHT31;59251;51.326;12.370;2023-06-10T06:43:54;18.36;81.83
71436;SHT31;59251;51.326;12.370;2023-06-10T06:46:25;18.48;81.41
71436;SHT31;59251;51.326;12.370;2023-06-10T06:48:53;18.56;81.46
71436;SHT31;59251;51.326;12.370;2023-06-10T06:51:20;18.48;81.49
71436;SHT31;59251;51.326;12.370;2023-06-10T06:53:47;18.58;81.39
71436;SHT31;59251;51.326;12.370;2023-06-10T06:56:15;18.60;81.54
71436;SHT31;59251;51.326;12.370;2023-06-10T06:58:42;18.54;81.64
71436;SHT31;59251;51.326;12.370;2023-06-10T07:01:09;18.76;81.27
71436;SHT31;59251;51.326;12.370;2023-06-10T07:03:37;18.83;81.24
71436;SHT31;59251;51.326;12.370;2023-06-10T07:06:04;19.06;80.60
71436;SHT31;59251;51.326;12.370;2023-06-10T07:08:31;19.13;80.42
71436;SHT31;59251;51.326;12.370;2023-06-10T07:10:57;19.33;80.12
71436;SHT31;59251;51.326;12.370;2023-06-10T07:13:24;19.30;79.70
71436;SHT31;59251;51.326;12.370;2023-06-10T07:15:51;19.47;78.83
71436;SHT31;59251;51.326;12.370;2023-06-10T07:18:17;19.54;78.84
71436;SHT31;59251;51.326;12.370;2023-06-10T07:20:45;19.59;79.23
71436;SHT31;59251;51.326;12.370;2023-06-10T07:23:12;19.67;79.13
71436;SHT31;59251;51.326;12.370;2023-06-10T07:25:40;19.75;78.65
71436;SHT31;59251;51.326;12.370;2023-06-10T07:28:07;19.59;78.79
71436;SHT31;59251;51.326;12.370;2023-06-10T07:30:34;19.81;78.54
71436;SHT31;59251;51.326;12.370;2023-06-10T07:33:00;20.01;78.07
71436;SHT31;59251;51.326;12.370;2023-06-10T07:35:27;20.14;77.80
71436;SHT31;59251;51.326;12.370;2023-06-10T07:37:55;20.14;77.49
71436;SHT31;59251;51.326;12.370;2023-06-10T07:40:22;19.91;77.75
71436;SHT31;59251;51.326;12.370;2023-06-10T07:42:48;20.18;77.61
71436;SHT31;59251;51.326;12.370;2023-06-10T07:45:15;20.22;77.03
71436;SHT31;59251;51.326;12.370;2023-06-10T07:47:42;20.18;76.64
71436;SHT31;59251;51.326;12.370;2023-06-10T07:50:09;20.52;76.23
71436;SHT31;59251;51.326;12.370;2023-06-10T07:52:36;20.66;75.93
71436;SHT31;59251;51.326;12.370;2023-06-10T07:55:05;20.57;75.97
71436;SHT31;59251;51.326;12.370;2023-06-10T07:57:32;20.69;75.83
71436;SHT31;59251;51.326;12.370;2023-06-10T08:00:02;20.95;75.39
71436;SHT31;59251;51.326;12.370;2023-06-10T08:02:38;20.91;74.67
71436;SHT31;59251;51.326;12.370;2023-06-10T08:05:05;21.01;74.45
71436;SHT31;59251;51.326;12.370;2023-06-10T08:07:31;20.98;74.60
71436;SHT31;59251;51.326;12.370;2023-06-10T08:09:58;20.93;74.71
71436;SHT31;59251;51.326;12.370;2023-06-10T08:12:26;20.91;74.77
71436;SHT31;59251;51.326;12.370;2023-06-10T08:14:53;20.98;74.75
71436;SHT31;59251;51.326;12.370;2023-06-10T08:17:20;21.08;74.82
71436;SHT31;59251;51.326;12.370;2023-06-10T08:19:47;21.04;74.23
71436;SHT31;59251;51.326;12.370;2023-06-10T08:22:13;21.32;74.18
71436;SHT31;59251;51.326;12.370;2023-06-10T08:24:40;21.43;73.99
71436;SHT31;59251;51.326;12.370;2023-06-10T08:27:07;21.56;74.23
71436;SHT31;59251;51.326;12.370;2023-06-10T08:29:35;21.63;74.13
71436;SHT31;59251;51.326;12.370;2023-06-10T08:32:02;21.78;73.23
71436;SHT31;59251;51.326;12.370;2023-06-10T08:34:28;21.66;73.43
71436;SHT31;59251;51.326;12.370;2023-06-10T08:36:55;21.79;72.89
71436;SHT31;59251;51.326;12.370;2023-06-10T08:39:22;21.76;73.36
71436;SHT31;59251;51.326;12.370;2023-06-10T08:41:57;21.88;73.59
71436;SHT31;59251;51.326;12.370;2023-06-10T08:44:28;22.20;73.03
71436;SHT31;59251;51.326;12.370;2023-06-10T08:46:59;22.21;72.21
71436;SHT31;59251;51.326;12.370;2023-06-10T08:49:27;22.22;72.42
71436;SHT31;59251;51.326;12.370;2023-06-10T08:51:59;22.34;72.03
71436;SHT31;59251;51.326;12.370;2023-06-10T08:54:28;22.44;72.09
71436;SHT31;59251;51.326;12.370;2023-06-10T08:56:57;22.44;72.15
71436;SHT31;59251;51.326;12.370;2023-06-10T08:59:25;22.69;71.81
71436;SHT31;59251;51.326;12.370;2023-06-10T09:01:53;22.75;71.00
71436;SHT31;59251;51.326;12.370;2023-06-10T09:04:23;22.94;70.53
71436;SHT31;59251;51.326;12.370;2023-06-10T09:06:51;22.92;70.40
71436;SHT31;59251;51.326;12.370;2023-06-10T09:09:19;23.09;70.18
71436;SHT31;59251;51.326;12.370;2023-06-10T09:11:46;23.06;69.44
71436;SHT31;59251;51.326;12.370;2023-06-10T09:14:13;23.05;69.78
71436;SHT31;59251;51.326;12.370;2023-06-10T09:16:42;23.09;69.79
71436;SHT31;59251;51.326;12.370;2023-06-10T09:19:09;23.31;69.43
71436;SHT31;59251;51.326;12.370;2023-06-10T09:21:38;23.49;69.12
71436;SHT31;59251;51.326;12.370;2023-06-10T09:24:05;23.60;68.76
71436;SHT31;59251;51.326;12.370;2023-06-10T09:26:31;23.61;68.13
71436;SHT31;59251;51.326;12.370;2023-06-10T09:29:04;23.84;68.39
71436;SHT31;59251;51.326;12.370;2023-06-10T09:31:32;23.97;68.13
71436;SHT31;59251;51.326;12.370;2023-06-10T09:34:07;23.97;67.82
71436;SHT31;59251;51.326;12.370;2023-06-10T09:36:35;24.15;67.79
71436;SHT31;59251;51.326;12.370;2023-06-10T09:39:04;23.94;67.81
71436;SHT31;59251;51.326;12.370;2023-06-10T09:41:32;24.01;67.33
71436;SHT31;59251;51.326;12.370;2023-06-10T09:43:59;24.20;67.01
71436;SHT31;59251;51.326;12.370;2023-06-10T09:46:30;24.60;65.96
71436;SHT31;59251;51.326;12.370;2023-06-10T09:48:58;24.78;65.73
71436;SHT31;59251;51.326;12.370;2023-06-10T09:51:25;24.83;64.47
71436;SHT31;59251;51.326;12.370;2023-06-10T09:53:53;25.21;63.85
71436;SHT31;59251;51.326;12.370;2023-06-10T09:56:32;25.26;63.90
71436;SHT31;59251;51.326;12.370;2023-06-10T09:58:59;25.08;64.02
71436;SHT31;59251;51.326;12.370;2023-06-10T10:01:26;25.31;63.63
71436;SHT31;59251;51.326;12.370;2023-06-10T10:03:52;25.24;63.94
71436;SHT31;59251;51.326;12.370;2023-06-10T10:06:20;25.49;63.37
71436;SHT31;59251;51.326;12.370;2023-06-10T10:08:48;25.01;64.43
71436;SHT31;59251;51.326;12.370;2023-06-10T10:11:16;25.43;62.97
71436;SHT31;59251;51.326;12.370;2023-06-10T10:13:45;25.60;62.49
71436;SHT31;59251;51.326;12.370;2023-06-10T10:16:14;25.49;62.89
71436;SHT31;59251;51.326;12.370;2023-06-10T10:18:46;25.59;62.58
71436;SHT31;59251;51.326;12.370;2023-06-10T10:21:16;25.50;62.65
71436;SHT31;59251;51.326;12.370;2023-06-10T10:23:51;25.98;62.03
71436;SHT31;59251;51.326;12.370;2023-06-10T10:26:21;25.84;62.41
71436;SHT31;59251;51.326;12.370;2023-06-10T10:28:56;26.31;61.75
71436;SHT31;59251;51.326;12.370;2023-06-10T10:31:27;26.63;60.97
71436;SHT31;59251;51.326;12.370;2023-06-10T10:33:58;26.31;60.79
71436;SHT31;59251;51.326;12.370;2023-06-10T10:36:25;26.52;61.09
71436;SHT31;59251;51.326;12.370;2023-06-10T10:38:53;26.86;59.91
71436;SHT31;59251;51.326;12.370;2023-06-10T10:41:20;26.82;60.10
71436;SHT31;59251;51.326;12.370;2023-06-10T10:43:50;26.83;59.45
71436;SHT31;59251;51.326;12.370;2023-06-10T10:46:17;25.98;60.95
71436;SHT31;59251;51.326;12.370;2023-06-10T10:48:45;26.18;61.38
71436;SHT31;59251;51.326;12.370;2023-06-10T10:51:15;26.28;60.29
71436;SHT31;59251;51.326;12.370;2023-06-10T10:53:42;26.76;60.04
71436;SHT31;59251;51.326;12.370;2023-06-10T10:56:13;26.95;58.71
71436;SHT31;59251;51.326;12.370;2023-06-10T10:58:40;27.10;59.02
71436;SHT31;59251;51.326;12.370;2023-06-10T11:01:12;27.24;58.43
71436;SHT31;59251;51.326;12.370;2023-06-10T11:03:43;27.50;56.27
71436;SHT31;59251;51.326;12.370;2023-06-10T11:06:13;27.37;55.92
71436;SHT31;59251;51.326;12.370;2023-06-10T11:08:46;27.33;56.39
71436;SHT31;59251;51.326;12.370;2023-06-10T11:11:18;28.02;55.42
71436;SHT31;59251;51.326;12.370;2023-06-10T11:13:58;27.93;55.46
71436;SHT31;59251;51.326;12.370;2023-06-10T11:16:27;27.89;55.01
71436;SHT31;59251;51.326;12.370;2023-06-10T11:18:54;28.20;54.20
71436;SHT31;59251;51.326;12.370;2023-06-10T11:21:23;28.79;53.27
71436;SHT31;59251;51.326;12.370;2023-06-10T11:23:51;28.94;52.77
71436;SHT31;59251;51.326;12.370;2023-06-10T11:26:29;28.58;51.59
71436;SHT31;59251;51.326;12.370;2023-06-10T11:29:07;28.46;51.74
71436;SHT31;59251;51.326;12.370;2023-06-10T11:31:46;29.16;50.85
71436;SHT31;59251;51.326;12.370;2023-06-10T11:34:15;29.50;50.06
71436;SHT31;59251;51.326;12.370;2023-06-10T11:36:49;29.05;50.48
71436;SHT31;59251;51.326;12.370;2023-06-10T11:39:17;29.49;50.22
71436;SHT31;59251;51.326;12.370;2023-06-10T11:41:45;30.05;48.79
71436;SHT31;59251;51.326;12.370;2023-06-10T11:44:12;29.43;49.22
71436;SHT31;59251;51.326;12.370;2023-06-10T11:46:40;29.15;50.27
71436;SHT31;59251;51.326;12.370;2023-06-10T11:49:09;28.50;51.70
71436;SHT31;59251;51.326;12.370;2023-06-10T11:51:37;29.32;49.48
71436;SHT31;59251;51.326;12.370;2023-06-10T11:54:05;30.80;47.69
71436;SHT31;59251;51.326;12.370;2023-06-10T11:56:32;29.74;51.08
71436;SHT31;59251;51.326;12.370;2023-06-10T11:59:00;29.46;51.45
71436;SHT31;59251;51.326;12.370;2023-06-10T12:01:30;30.29;49.38
71436;SHT31;59251;51.326;12.370;2023-06-10T12:04:02;31.04;47.88
71436;SHT31;59251;51.326;12.370;2023-06-10T12:06:42;30.79;47.59
71436;SHT31;59251;51.326;12.370;2023-06-10T12:09:20;31.48;45.34
71436;SHT31;59251;51.326;12.370;2023-06-10T12:11:50;32.47;44.07
71436;SHT31;59251;51.326;12.370;2023-06-10T12:14:50;31.07;45.50
71436;SHT31;59251;51.326;12.370;2023-06-10T12:17:20;30.58;46.55
71436;SHT31;59251;51.326;12.370;2023-06-10T12:19:47;31.39;45.81
71436;SHT31;59251;51.326;12.370;2023-06-10T12:22:16;31.14;46.29
71436;SHT31;59251;51.326;12.370;2023-06-10T12:24:45;30.39;47.38
71436;SHT31;59251;51.326;12.370;2023-06-10T12:27:12;31.88;45.55
71436;SHT31;59251;51.326;12.370;2023-06-10T12:29:39;30.55;47.31
71436;SHT31;59251;51.326;12.370;2023-06-10T12:32:17;31.27;46.80
71436;SHT31;59251;51.326;12.370;2023-06-10T12:34:45;31.21;47.16
71436;SHT31;59251;51.326;12.370;2023-06-10T12:37:12;31.18;46.86
71436;SHT31;59251;51.326;12.370;2023-06-10T12:39:41;29.49;47.70
71436;SHT31;59251;51.326;12.370;2023-06-10T12:42:09;30.70;46.34
71436;SHT31;59251;51.326;12.370;2023-06-10T12:44:39;31.31;45.71
71436;SHT31;59251;51.326;12.370;2023-06-10T12:47:09;30.96;45.55
71436;SHT31;59251;51.326;12.370;2023-06-10T12:49:38;31.62;44.77
71436;SHT31;59251;51.326;12.370;2023-06-10T12:52:05;32.58;42.83
71436;SHT31;59251;51.326;12.370;2023-06-10T12:54:32;33.27;42.51
71436;SHT31;59251;51.326;12.370;2023-06-10T12:57:01;32.40;42.18
71436;SHT31;59251;51.326;12.370;2023-06-10T12:59:28;30.55;43.41
71436;SHT31;59251;51.326;12.370;2023-06-10T13:01:55;31.06;42.67
71436;SHT31;59251;51.326;12.370;2023-06-10T13:04:21;30.90;43.50
71436;SHT31;59251;51.326;12.370;2023-06-10T13:06:48;29.92;44.79
71436;SHT31;59251;51.326;12.370;2023-06-10T13:09:16;29.16;46.99
71436;SHT31;59251;51.326;12.370;2023-06-10T13:11:42;29.29;47.27
71436;SHT31;59251;51.326;12.370;2023-06-10T13:14:11;28.50;49.11
71436;SHT31;59251;51.326;12.370;2023-06-10T13:16:38;28.09;50.06
71436;SHT31;59251;51.326;12.370;2023-06-10T13:19:05;27.54;51.69
71436;SHT31;59251;51.326;12.370;2023-06-10T13:21:32;27.78;51.80
71436;SHT31;59251;51.326;12.370;2023-06-10T13:23:59;27.35;51.94
71436;SHT31;59251;51.326;12.370;2023-06-10T13:26:26;27.13;52.55
71436;SHT31;59251;51.326;12.370;2023-06-10T13:28:53;27.37;51.67
71436;SHT31;59251;51.326;12.370;2023-06-10T13:31:21;26.75;51.95
71436;SHT31;59251;51.326;12.370;2023-06-10T13:33:47;26.82;51.83
71436;SHT31;59251;51.326;12.370;2023-06-10T13:36:14;25.96;51.05
71436;SHT31;59251;51.326;12.370;2023-06-10T13:38:41;25.38;51.79
71436;SHT31;59251;51.326;12.370;2023-06-10T13:41:08;25.62;51.32
71436;SHT31;59251;51.326;12.370;2023-06-10T13:43:35;25.53;51.28
71436;SHT31;59251;51.326;12.370;2023-06-10T13:46:02;26.07;50.80
71436;SHT31;59251;51.326;12.370;2023-06-10T13:48:30;25.66;51.13
71436;SHT31;59251;51.326;12.370;2023-06-10T13:50:57;25.83;50.76
71436;SHT31;59251;51.326;12.370;2023-06-10T13:53:25;25.84;50.51
71436;SHT31;59251;51.326;12.370;2023-06-10T13:55:51;25.90;50.16
71436;SHT31;59251;51.326;12.370;2023-06-10T13:58:18;26.78;48.79
71436;SHT31;59251;51.326;12.370;2023-06-10T14:00:45;27.44;46.94
71436;SHT31;59251;51.326;12.370;2023-06-10T14:03:12;28.50;44.72
71436;SHT31;59251;51.326;12.370;2023-06-10T14:05:40;28.72;43.87
71436;SHT31;59251;51.326;12.370;2023-06-10T14:08:07;28.32;45.12
71436;SHT31;59251;51.326;12.370;2023-06-10T14:10:34;28.50;44.53
71436;SHT31;59251;51.326;12.370;2023-06-10T14:13:00;29.91;41.87
71436;SHT31;59251;51.326;12.370;2023-06-10T14:15:27;30.65;40.22
71436;SHT31;59251;51.326;12.370;2023-06-10T14:17:54;30.27;40.73
71436;SHT31;59251;51.326;12.370;2023-06-10T14:20:20;30.05;40.22
71436;SHT31;59251;51.326;12.370;2023-06-10T14:22:48;30.05;40.08
71436;SHT31;59251;51.326;12.370;2023-06-10T14:25:15;30.76;39.36
71436;SHT31;59251;51.326;12.370;2023-06-10T14:27:43;30.43;39.74
71436;SHT31;59251;51.326;12.370;2023-06-10T14:30:10;29.49;40.93
71436;SHT31;59251;51.326;12.370;2023-06-10T14:32:37;29.09;41.77
71436;SHT31;59251;51.326;12.370;2023-06-10T14:35:04;29.14;40.93
71436;SHT31;59251;51.326;12.370;2023-06-10T14:37:30;28.69;40.34
71436;SHT31;59251;51.326;12.370;2023-06-10T14:39:59;28.81;39.19
71436;SHT31;59251;51.326;12.370;2023-06-10T14:42:25;28.24;40.34
71436;SHT31;59251;51.326;12.370;2023-06-10T14:44:52;28.46;39.94
71436;SHT31;59251;51.326;12.370;2023-06-10T14:47:19;28.54;40.24
71436;SHT31;59251;51.326;12.370;2023-06-10T14:49:45;28.71;40.34
71436;SHT31;59251;51.326;12.370;2023-06-10T14:52:12;29.39;39.48
71436;SHT31;59251;51.326;12.370;2023-06-10T14:54:39;30.52;38.09
71436;SHT31;59251;51.326;12.370;2023-06-10T14:57:07;31.39;37.61
71436;SHT31;59251;51.326;12.370;2023-06-10T14:59:34;30.79;39.99
71436;SHT31;59251;51.326;12.370;2023-06-10T15:02:01;28.98;46.37
71436;SHT31;59251;51.326;12.370;2023-06-10T15:04:27;28.71;47.76
71436;SHT31;59251;51.326;12.370;2023-06-10T15:06:54;28.94;47.74
71436;SHT31;59251;51.326;12.370;2023-06-10T15:09:21;28.50;49.10
71436;SHT31;59251;51.326;12.370;2023-06-10T15:11:48;28.12;50.30
71436;SHT31;59251;51.326;12.370;2023-06-10T15:14:16;28.12;51.26
71436;SHT31;59251;51.326;12.370;2023-06-10T15:16:42;28.43;50.85
71436;SHT31;59251;51.326;12.370;2023-06-10T15:19:09;28.88;50.30
71436;SHT31;59251;51.326;12.370;2023-06-10T15:21:36;28.37;51.00